MMPB/PBC METAR and TAF weather

Enter ICAO airport designator
Station Type Date Time Source
MMPB METAR 2024/05/28 22:46 UTC NOAA

MMPB 282246Z 14009KT 8SM SKC 30/M05 A3032 RMK HZY CU CI


Station Type Date Time Source
MMPB Decoded METAR 2024/05/28 22:46 UTC NOAA

Puebla, Pue., Mexico (MMPB) 19-03N 098-10W
May 28, 2024 - 06:46 PM EDT / 2024.05.28 2246 UTC
Wind: from the SE (140 degrees) at 10 MPH (9 KT):0
Visibility: 8 mile(s):0
Sky conditions: clear
Temperature: 86 F (30 C)
Dew Point: 23 F (-5 C)
Relative Humidity: 9%
Pressure (altimeter): 30.32 in. Hg (1026 hPa)
ob: MMPB 282246Z 14009KT 8SM SKC 30/M05 A3032 RMK HZY CU CI
cycle: 23

Station Type Date Time Source
MMPB TAF 2024/05/28 18:15 UTC NOAA